sensor_id;sensor_type;location;lat;lon;timestamp;pressure;altitude;pressure_sealevel;temperature;humidity
21096;BME280;10706;49.036;12.112;2022-12-07T00:01:41;97663.81;;;1.93;94.92
21096;BME280;10706;49.036;12.112;2022-12-07T00:04:11;97665.78;;;1.91;93.32
21096;BME280;10706;49.036;12.112;2022-12-07T00:06:41;97662.72;;;1.88;93.67
21096;BME280;10706;49.036;12.112;2022-12-07T00:09:12;97664.78;;;1.92;94.37
21096;BME280;10706;49.036;12.112;2022-12-07T00:11:38;97654.25;;;1.92;94.49
21096;BME280;10706;49.036;12.112;2022-12-07T00:14:07;97651.44;;;1.94;93.99
21096;BME280;10706;49.036;12.112;2022-12-07T00:16:35;97650.81;;;1.92;94.90
21096;BME280;10706;49.036;12.112;2022-12-07T00:19:03;97646.34;;;1.92;94.61
21096;BME280;10706;49.036;12.112;2022-12-07T00:21:34;97649.97;;;1.91;95.30
21096;BME280;10706;49.036;12.112;2022-12-07T00:24:03;97644.91;;;1.90;95.41
21096;BME280;10706;49.036;12.112;2022-12-07T00:26:37;97646.25;;;1.86;95.22
21096;BME280;10706;49.036;12.112;2022-12-07T00:29:06;97648.88;;;1.86;93.73
21096;BME280;10706;49.036;12.112;2022-12-07T00:31:37;97649.09;;;1.84;95.50
21096;BME280;10706;49.036;12.112;2022-12-07T00:34:17;97643.72;;;1.92;95.88
21096;BME280;10706;49.036;12.112;2022-12-07T00:36:44;97653.34;;;1.85;93.14
21096;BME280;10706;49.036;12.112;2022-12-07T00:39:09;97648.25;;;1.84;95.13
21096;BME280;10706;49.036;12.112;2022-12-07T00:41:35;97640.91;;;1.79;94.52
21096;BME280;10706;49.036;12.112;2022-12-07T00:44:01;97643.19;;;1.82;94.05
21096;BME280;10706;49.036;12.112;2022-12-07T00:46:27;97647.81;;;1.80;95.09
21096;BME280;10706;49.036;12.112;2022-12-07T00:48:54;97635.66;;;1.79;94.24
21096;BME280;10706;49.036;12.112;2022-12-07T00:51:23;97642.13;;;1.77;94.60
21096;BME280;10706;49.036;12.112;2022-12-07T00:53:49;97651.63;;;1.78;93.80
21096;BME280;10706;49.036;12.112;2022-12-07T00:56:20;97644.28;;;1.73;94.60
21096;BME280;10706;49.036;12.112;2022-12-07T00:58:58;97649.72;;;1.71;95.18
21096;BME280;10706;49.036;12.112;2022-12-07T01:01:27;97648.53;;;1.74;94.97
21096;BME280;10706;49.036;12.112;2022-12-07T01:03:54;97648.91;;;1.71;93.33
21096;BME280;10706;49.036;12.112;2022-12-07T01:06:21;97648.25;;;1.69;94.11
21096;BME280;10706;49.036;12.112;2022-12-07T01:08:48;97639.53;;;1.68;94.83
21096;BME280;10706;49.036;12.112;2022-12-07T01:11:19;97648.63;;;1.66;95.28
21096;BME280;10706;49.036;12.112;2022-12-07T01:13:45;97646.97;;;1.65;93.23
21096;BME280;10706;49.036;12.112;2022-12-07T01:16:16;97646.97;;;1.65;94.17
21096;BME280;10706;49.036;12.112;2022-12-07T01:18:46;97644.53;;;1.63;93.21
21096;BME280;10706;49.036;12.112;2022-12-07T01:21:19;97648.00;;;1.64;93.60
21096;BME280;10706;49.036;12.112;2022-12-07T01:23:46;97639.47;;;1.62;94.30
21096;BME280;10706;49.036;12.112;2022-12-07T01:26:17;97642.91;;;1.62;94.14
21096;BME280;10706;49.036;12.112;2022-12-07T01:28:43;97645.19;;;1.65;92.76
21096;BME280;10706;49.036;12.112;2022-12-07T01:31:15;97646.00;;;1.66;91.73
21096;BME280;10706;49.036;12.112;2022-12-07T01:33:48;97643.53;;;1.64;92.67
21096;BME280;10706;49.036;12.112;2022-12-07T01:36:23;97646.00;;;1.66;91.82
21096;BME280;10706;49.036;12.112;2022-12-07T01:38:54;97646.97;;;1.65;93.10
21096;BME280;10706;49.036;12.112;2022-12-07T01:41:23;97637.47;;;1.64;92.94
21096;BME280;10706;49.036;12.112;2022-12-07T01:47:01;97650.44;;;1.65;93.43
21096;BME280;10706;49.036;12.112;2022-12-07T01:49:47;97637.00;;;1.60;91.79
21096;BME280;10706;49.036;12.112;2022-12-07T01:52:23;97632.72;;;1.59;92.02
21096;BME280;10706;49.036;12.112;2022-12-07T01:54:54;97632.09;;;1.57;93.47
21096;BME280;10706;49.036;12.112;2022-12-07T01:57:22;97640.81;;;1.58;93.49
21096;BME280;10706;49.036;12.112;2022-12-07T01:59:51;97630.09;;;1.59;93.61
21096;BME280;10706;49.036;12.112;2022-12-07T02:02:29;97636.38;;;1.58;93.62
21096;BME280;10706;49.036;12.112;2022-12-07T02:04:57;97635.53;;;1.58;92.70
21096;BME280;10706;49.036;12.112;2022-12-07T02:07:25;97633.75;;;1.58;91.84
21096;BME280;10706;49.036;12.112;2022-12-07T02:09:52;97638.16;;;1.58;92.76
21096;BME280;10706;49.036;12.112;2022-12-07T02:12:19;97637.53;;;1.55;92.61
21096;BME280;10706;49.036;12.112;2022-12-07T02:14:46;97640.00;;;1.57;91.86
21096;BME280;10706;49.036;12.112;2022-12-07T02:17:31;97634.72;;;1.57;92.07
21096;BME280;10706;49.036;12.112;2022-12-07T02:22:52;97634.56;;;1.59;92.72
21096;BME280;10706;49.036;12.112;2022-12-07T02:30:58;97627.00;;;1.55;91.24
21096;BME280;10706;49.036;12.112;2022-12-07T02:33:57;97627.84;;;1.56;91.59
21096;BME280;10706;49.036;12.112;2022-12-07T02:36:32;97633.91;;;1.57;91.19
21096;BME280;10706;49.036;12.112;2022-12-07T02:41:44;97630.66;;;1.54;90.53
21096;BME280;10706;49.036;12.112;2022-12-07T02:44:17;97631.63;;;1.53;90.97
21096;BME280;10706;49.036;12.112;2022-12-07T02:46:53;97628.84;;;1.55;91.83
21096;BME280;10706;49.036;12.112;2022-12-07T02:49:23;97621.13;;;1.53;92.38
21096;BME280;10706;49.036;12.112;2022-12-07T02:51:49;97623.75;;;1.53;92.45
21096;BME280;10706;49.036;12.112;2022-12-07T02:54:18;97630.03;;;1.52;92.35
21096;BME280;10706;49.036;12.112;2022-12-07T03:08:33;97611.66;;;1.44;93.47
21096;BME280;10706;49.036;12.112;2022-12-07T03:11:25;97621.56;;;1.42;93.20
21096;BME280;10706;49.036;12.112;2022-12-07T03:14:03;97620.94;;;1.40;93.17
21096;BME280;10706;49.036;12.112;2022-12-07T03:17:14;97619.66;;;1.36;92.90
21096;BME280;10706;49.036;12.112;2022-12-07T03:19:43;97621.00;;;1.32;93.26
21096;BME280;10706;49.036;12.112;2022-12-07T03:22:13;97616.09;;;1.29;93.47
21096;BME280;10706;49.036;12.112;2022-12-07T03:24:48;97622.38;;;1.28;94.75
21096;BME280;10706;49.036;12.112;2022-12-07T03:27:25;97623.34;;;1.27;94.06
21096;BME280;10706;49.036;12.112;2022-12-07T03:30:06;97624.34;;;1.26;95.23
21096;BME280;10706;49.036;12.112;2022-12-07T03:32:45;97619.06;;;1.26;93.95
21096;BME280;10706;49.036;12.112;2022-12-07T03:35:34;97622.38;;;1.28;93.23
21096;BME280;10706;49.036;12.112;2022-12-07T03:43:25;97605.75;;;1.27;93.28
21096;BME280;10706;49.036;12.112;2022-12-07T03:51:54;97616.09;;;1.29;93.35
21096;BME280;10706;49.036;12.112;2022-12-07T03:56:56;97610.03;;;1.28;93.74
21096;BME280;10706;49.036;12.112;2022-12-07T03:59:23;97612.66;;;1.28;92.73
21096;BME280;10706;49.036;12.112;2022-12-07T04:01:56;97617.13;;;1.28;92.48
21096;BME280;10706;49.036;12.112;2022-12-07T04:04:23;97603.13;;;1.27;93.56
21096;BME280;10706;49.036;12.112;2022-12-07T04:06:50;97601.78;;;1.31;93.48
21096;BME280;10706;49.036;12.112;2022-12-07T04:09:16;97595.34;;;1.34;93.09
21096;BME280;10706;49.036;12.112;2022-12-07T04:11:42;97596.97;;;1.50;92.65
21096;BME280;10706;49.036;12.112;2022-12-07T04:14:08;97616.47;;;1.41;93.56
21096;BME280;10706;49.036;12.112;2022-12-07T04:16:56;97609.69;;;1.31;91.99
21096;BME280;10706;49.036;12.112;2022-12-07T04:19:33;97617.75;;;1.30;92.95
21096;BME280;10706;49.036;12.112;2022-12-07T04:22:01;97613.47;;;1.29;91.68
21096;BME280;10706;49.036;12.112;2022-12-07T04:24:27;97617.75;;;1.30;93.42
21096;BME280;10706;49.036;12.112;2022-12-07T04:26:53;97609.03;;;1.29;93.49
21096;BME280;10706;49.036;12.112;2022-12-07T04:29:19;97609.84;;;1.30;92.73
21096;BME280;10706;49.036;12.112;2022-12-07T04:31:45;97604.94;;;1.27;92.48
21096;BME280;10706;49.036;12.112;2022-12-07T04:34:12;97600.66;;;1.26;93.01
21096;BME280;10706;49.036;12.112;2022-12-07T04:36:39;97602.66;;;1.24;92.72
21096;BME280;10706;49.036;12.112;2022-12-07T04:39:07;97603.31;;;1.26;93.78
21096;BME280;10706;49.036;12.112;2022-12-07T04:41:33;97602.50;;;1.25;93.53
21096;BME280;10706;49.036;12.112;2022-12-07T04:44:02;97596.59;;;1.23;94.37
21096;BME280;10706;49.036;12.112;2022-12-07T04:46:30;97593.16;;;1.23;94.35
21096;BME280;10706;49.036;12.112;2022-12-07T04:48:57;97603.84;;;1.21;93.12
21096;BME280;10706;49.036;12.112;2022-12-07T04:51:28;97597.94;;;1.19;93.38
21096;BME280;10706;49.036;12.112;2022-12-07T04:53:55;97599.78;;;1.19;94.44
21096;BME280;10706;49.036;12.112;2022-12-07T04:56:22;97591.03;;;1.18;93.36
21096;BME280;10706;49.036;12.112;2022-12-07T04:58:49;97579.72;;;1.17;94.26
21096;BME280;10706;49.036;12.112;2022-12-07T05:01:16;97582.00;;;1.21;93.81
21096;BME280;10706;49.036;12.112;2022-12-07T05:03:43;97584.81;;;1.19;94.02
21096;BME280;10706;49.036;12.112;2022-12-07T05:06:10;97587.78;;;1.16;94.45
21096;BME280;10706;49.036;12.112;2022-12-07T05:08:36;97588.97;;;1.13;93.69
21096;BME280;10706;49.036;12.112;2022-12-07T05:11:04;97577.69;;;1.05;93.55
21096;BME280;10706;49.036;12.112;2022-12-07T05:13:32;97573.72;;;0.94;95.15
21096;BME280;10706;49.036;12.112;2022-12-07T05:15:58;97585.28;;;0.85;94.60
21096;BME280;10706;49.036;12.112;2022-12-07T05:18:24;97569.56;;;0.76;95.67
21096;BME280;10706;49.036;12.112;2022-12-07T05:20:50;97570.28;;;0.70;95.25
21096;BME280;10706;49.036;12.112;2022-12-07T05:23:17;97569.34;;;0.63;95.04
21096;BME280;10706;49.036;12.112;2022-12-07T05:25:44;97564.16;;;0.55;95.69
21096;BME280;10706;49.036;12.112;2022-12-07T05:28:10;97564.84;;;0.49;96.10
21096;BME280;10706;49.036;12.112;2022-12-07T05:30:36;97556.53;;;0.45;96.27
21096;BME280;10706;49.036;12.112;2022-12-07T05:33:02;97570.97;;;0.41;97.26
21096;BME280;10706;49.036;12.112;2022-12-07T05:35:29;97567.06;;;0.37;97.45
21096;BME280;10706;49.036;12.112;2022-12-07T05:37:55;97573.66;;;0.33;97.80
21096;BME280;10706;49.036;12.112;2022-12-07T05:40:22;97568.09;;;0.28;97.81
21096;BME280;10706;49.036;12.112;2022-12-07T05:42:48;97566.34;;;0.20;97.52
21096;BME280;10706;49.036;12.112;2022-12-07T05:45:14;97568.16;;;0.19;98.24
21096;BME280;10706;49.036;12.112;2022-12-07T05:47:39;97564.09;;;0.17;98.04
21096;BME280;10706;49.036;12.112;2022-12-07T05:50:06;97576.09;;;0.11;97.95
21096;BME280;10706;49.036;12.112;2022-12-07T05:52:32;97573.81;;;0.08;98.71
21096;BME280;10706;49.036;12.112;2022-12-07T05:54:58;97582.84;;;0.06;98.48
21096;BME280;10706;49.036;12.112;2022-12-07T05:57:23;97587.44;;;0.04;97.82
21096;BME280;10706;49.036;12.112;2022-12-07T05:59:49;97581.25;;;-0.04;97.66
21096;BME280;10706;49.036;12.112;2022-12-07T06:02:16;97581.44;;;-0.13;98.20
21096;BME280;10706;49.036;12.112;2022-12-07T06:04:45;97583.78;;;-0.18;98.33
21096;BME280;10706;49.036;12.112;2022-12-07T06:07:13;97585.28;;;-0.24;98.23
21096;BME280;10706;49.036;12.112;2022-12-07T06:09:40;97591.66;;;-0.27;98.32
21096;BME280;10706;49.036;12.112;2022-12-07T06:12:09;97592.50;;;-0.26;99.23
21096;BME280;10706;49.036;12.112;2022-12-07T06:14:54;97597.44;;;-0.31;99.28
21096;BME280;10706;49.036;12.112;2022-12-07T06:17:20;97599.25;;;-0.32;99.37
21096;BME280;10706;49.036;12.112;2022-12-07T06:19:45;97594.47;;;-0.28;99.21
21096;BME280;10706;49.036;12.112;2022-12-07T06:22:12;97607.25;;;-0.25;99.97
21096;BME280;10706;49.036;12.112;2022-12-07T06:24:39;97603.28;;;-0.21;100.00
21096;BME280;10706;49.036;12.112;2022-12-07T06:27:06;97603.94;;;-0.19;99.68
21096;BME280;10706;49.036;12.112;2022-12-07T06:29:32;97599.84;;;-0.22;100.00
21096;BME280;10706;49.036;12.112;2022-12-07T06:31:58;97603.66;;;-0.24;99.72
21096;BME280;10706;49.036;12.112;2022-12-07T06:34:25;97612.16;;;-0.22;100.00
21096;BME280;10706;49.036;12.112;2022-12-07T06:36:52;97606.75;;;-0.21;99.84
21096;BME280;10706;49.036;12.112;2022-12-07T06:39:26;97607.09;;;-0.24;99.62
21096;BME280;10706;49.036;12.112;2022-12-07T06:41:52;97606.44;;;-0.26;99.48
21096;BME280;10706;49.036;12.112;2022-12-07T06:44:19;97608.59;;;-0.29;100.00
21096;BME280;10706;49.036;12.112;2022-12-07T06:46:45;97610.72;;;-0.33;99.75
21096;BME280;10706;49.036;12.112;2022-12-07T06:49:12;97622.19;;;-0.34;99.58
21096;BME280;10706;49.036;12.112;2022-12-07T06:51:38;97617.63;;;-0.32;99.34
21096;BME280;10706;49.036;12.112;2022-12-07T06:54:11;97617.41;;;-0.30;99.65
21096;BME280;10706;49.036;12.112;2022-12-07T06:56:38;97623.00;;;-0.25;99.67
21096;BME280;10706;49.036;12.112;2022-12-07T06:59:04;97625.28;;;-0.22;99.63
21096;BME280;10706;49.036;12.112;2022-12-07T07:01:32;97617.91;;;-0.18;100.00
21096;BME280;10706;49.036;12.112;2022-12-07T07:03:58;97622.28;;;-0.11;99.82
21096;BME280;10706;49.036;12.112;2022-12-07T07:06:24;97637.34;;;-0.05;100.00
21096;BME280;10706;49.036;12.112;2022-12-07T07:08:51;97633.44;;;-0.09;99.90
21096;BME280;10706;49.036;12.112;2022-12-07T07:11:16;97629.00;;;-0.08;100.00
21096;BME280;10706;49.036;12.112;2022-12-07T07:13:42;97624.88;;;-0.03;100.00
21096;BME280;10706;49.036;12.112;2022-12-07T07:16:08;97634.34;;;0.07;99.37
21096;BME280;10706;49.036;12.112;2022-12-07T07:18:34;97627.75;;;0.11;99.63
21096;BME280;10706;49.036;12.112;2022-12-07T07:21:00;97631.34;;;0.18;100.00
21096;BME280;10706;49.036;12.112;2022-12-07T07:23:26;97634.44;;;0.22;99.39
21096;BME280;10706;49.036;12.112;2022-12-07T07:25:52;97619.16;;;0.25;98.98
21096;BME280;10706;49.036;12.112;2022-12-07T07:28:18;97622.69;;;0.41;98.55
21096;BME280;10706;49.036;12.112;2022-12-07T07:30:44;97623.47;;;0.49;99.10
21096;BME280;10706;49.036;12.112;2022-12-07T07:33:11;97620.94;;;0.56;98.12
21096;BME280;10706;49.036;12.112;2022-12-07T07:35:37;97630.25;;;0.67;98.67
21096;BME280;10706;49.036;12.112;2022-12-07T07:38:05;97638.34;;;0.57;98.14
21096;BME280;10706;49.036;12.112;2022-12-07T07:40:31;97640.50;;;0.76;96.16
21096;BME280;10706;49.036;12.112;2022-12-07T07:42:57;97632.69;;;0.68;95.31
21096;BME280;10706;49.036;12.112;2022-12-07T07:45:25;97642.03;;;0.71;95.74
21096;BME280;10706;49.036;12.112;2022-12-07T07:47:51;97636.94;;;0.69;94.99
21096;BME280;10706;49.036;12.112;2022-12-07T07:50:18;97632.69;;;0.68;95.52
21096;BME280;10706;49.036;12.112;2022-12-07T07:52:44;97627.84;;;0.80;94.77
21096;BME280;10706;49.036;12.112;2022-12-07T07:55:10;97626.91;;;0.96;95.05
21096;BME280;10706;49.036;12.112;2022-12-07T07:57:38;97630.53;;;0.95;93.70
21096;BME280;10706;49.036;12.112;2022-12-07T08:00:08;97631.81;;;0.99;94.60
21096;BME280;10706;49.036;12.112;2022-12-07T08:02:34;97642.38;;;1.14;93.86
21096;BME280;10706;49.036;12.112;2022-12-07T08:05:00;97647.91;;;1.19;92.51
21096;BME280;10706;49.036;12.112;2022-12-07T08:07:27;97638.66;;;1.23;93.00
21096;BME280;10706;49.036;12.112;2022-12-07T08:09:53;97645.59;;;1.39;92.68
21096;BME280;10706;49.036;12.112;2022-12-07T08:12:19;97653.31;;;1.55;93.89
21096;BME280;10706;49.036;12.112;2022-12-07T08:14:45;97656.41;;;1.59;91.08
21096;BME280;10706;49.036;12.112;2022-12-07T08:17:11;97652.34;;;1.71;91.52
21096;BME280;10706;49.036;12.112;2022-12-07T08:19:37;97652.53;;;1.70;89.63
21096;BME280;10706;49.036;12.112;2022-12-07T08:22:03;97643.84;;;1.84;88.88
21096;BME280;10706;49.036;12.112;2022-12-07T08:24:29;97642.38;;;1.82;87.99
21096;BME280;10706;49.036;12.112;2022-12-07T08:26:55;97648.72;;;1.87;87.70
21096;BME280;10706;49.036;12.112;2022-12-07T08:29:21;97650.44;;;2.10;89.13
21096;BME280;10706;49.036;12.112;2022-12-07T08:31:47;97648.53;;;2.19;88.63
21096;BME280;10706;49.036;12.112;2022-12-07T08:34:13;97661.97;;;2.09;87.65
21096;BME280;10706;49.036;12.112;2022-12-07T08:36:39;97651.03;;;2.27;87.86
21096;BME280;10706;49.036;12.112;2022-12-07T08:39:05;97659.34;;;2.09;84.99
21096;BME280;10706;49.036;12.112;2022-12-07T08:41:31;97650.59;;;2.23;85.48
21096;BME280;10706;49.036;12.112;2022-12-07T08:43:57;97657.69;;;2.23;84.76
21096;BME280;10706;49.036;12.112;2022-12-07T08:46:45;97654.13;;;2.30;85.81
21096;BME280;10706;49.036;12.112;2022-12-07T08:49:19;97655.63;;;2.18;86.76
21096;BME280;10706;49.036;12.112;2022-12-07T08:51:45;97655.06;;;2.08;86.46
21096;BME280;10706;49.036;12.112;2022-12-07T08:54:17;97652.06;;;2.11;86.53
21096;BME280;10706;49.036;12.112;2022-12-07T08:56:44;97662.78;;;2.61;89.62
21096;BME280;10706;49.036;12.112;2022-12-07T08:59:14;97659.53;;;2.44;87.26
21096;BME280;10706;49.036;12.112;2022-12-07T09:01:42;97656.44;;;2.55;84.44
21096;BME280;10706;49.036;12.112;2022-12-07T09:04:09;97658.44;;;2.53;85.26
21096;BME280;10706;49.036;12.112;2022-12-07T09:06:35;97663.78;;;2.60;85.53
21096;BME280;10706;49.036;12.112;2022-12-07T09:09:02;97664.47;;;2.32;83.83
21096;BME280;10706;49.036;12.112;2022-12-07T09:11:28;97665.41;;;2.24;83.88
21096;BME280;10706;49.036;12.112;2022-12-07T09:13:54;97666.84;;;2.27;85.83
21096;BME280;10706;49.036;12.112;2022-12-07T09:16:20;97664.50;;;2.17;84.01
21096;BME280;10706;49.036;12.112;2022-12-07T09:18:45;97655.84;;;2.38;86.08
21096;BME280;10706;49.036;12.112;2022-12-07T09:21:11;97660.03;;;2.18;85.49
21096;BME280;10706;49.036;12.112;2022-12-07T09:23:37;97658.88;;;2.20;84.78
21096;BME280;10706;49.036;12.112;2022-12-07T09:26:04;97664.97;;;2.06;85.81
21096;BME280;10706;49.036;12.112;2022-12-07T09:28:33;97662.91;;;2.01;86.05
21096;BME280;10706;49.036;12.112;2022-12-07T09:30:58;97659.97;;;2.11;86.32
21096;BME280;10706;49.036;12.112;2022-12-07T09:33:24;97660.88;;;2.18;85.29
21096;BME280;10706;49.036;12.112;2022-12-07T09:35:52;97651.97;;;2.19;84.33
21096;BME280;10706;49.036;12.112;2022-12-07T09:38:19;97662.78;;;2.09;83.57
21096;BME280;10706;49.036;12.112;2022-12-07T09:40:46;97649.72;;;2.01;84.41
21096;BME280;10706;49.036;12.112;2022-12-07T09:43:20;97644.34;;;2.09;85.56
21096;BME280;10706;49.036;12.112;2022-12-07T09:45:53;97647.72;;;2.18;84.38
21096;BME280;10706;49.036;12.112;2022-12-07T09:48:33;97656.31;;;2.27;85.62
21096;BME280;10706;49.036;12.112;2022-12-07T09:51:02;97651.78;;;2.21;84.63
21096;BME280;10706;49.036;12.112;2022-12-07T09:53:37;97647.31;;;2.21;82.87
21096;BME280;10706;49.036;12.112;2022-12-07T09:56:04;97646.22;;;2.30;84.83
21096;BME280;10706;49.036;12.112;2022-12-07T09:58:31;97649.41;;;2.41;82.77
21096;BME280;10706;49.036;12.112;2022-12-07T10:01:16;97647.13;;;2.38;84.15
21096;BME280;10706;49.036;12.112;2022-12-07T10:03:51;97648.28;;;2.50;83.41
21096;BME280;10706;49.036;12.112;2022-12-07T10:06:17;97642.16;;;2.28;84.01
21096;BME280;10706;49.036;12.112;2022-12-07T10:08:43;97636.44;;;2.24;83.64
21096;BME280;10706;49.036;12.112;2022-12-07T10:11:11;97632.81;;;2.25;84.04
21096;BME280;10706;49.036;12.112;2022-12-07T10:13:47;97631.59;;;2.43;84.46
21096;BME280;10706;49.036;12.112;2022-12-07T10:16:40;97632.47;;;2.50;81.96
21096;BME280;10706;49.036;12.112;2022-12-07T10:19:30;97623.25;;;2.61;83.75
21096;BME280;10706;49.036;12.112;2022-12-07T10:24:31;97613.28;;;2.56;81.01
21096;BME280;10706;49.036;12.112;2022-12-07T10:26:57;97603.56;;;2.78;82.63
21096;BME280;10706;49.036;12.112;2022-12-07T10:29:32;97599.66;;;2.96;81.70
21096;BME280;10706;49.036;12.112;2022-12-07T10:32:04;97602.59;;;3.07;80.50
21096;BME280;10706;49.036;12.112;2022-12-07T10:34:36;97595.50;;;2.86;80.84
21096;BME280;10706;49.036;12.112;2022-12-07T10:37:18;97604.47;;;3.14;81.31
21096;BME280;10706;49.036;12.112;2022-12-07T10:42:29;97595.78;;;3.20;81.47
21096;BME280;10706;49.036;12.112;2022-12-07T10:45:15;97591.81;;;3.02;79.42
21096;BME280;10706;49.036;12.112;2022-12-07T10:48:16;97596.09;;;2.82;80.56
21096;BME280;10706;49.036;12.112;2022-12-07T10:51:16;97592.22;;;3.06;81.25
21096;BME280;10706;49.036;12.112;2022-12-07T10:56:42;97579.38;;;2.96;80.82
21096;BME280;10706;49.036;12.112;2022-12-07T10:59:39;97578.56;;;2.96;79.78
21096;BME280;10706;49.036;12.112;2022-12-07T11:05:45;97580.59;;;3.22;78.12
21096;BME280;10706;49.036;12.112;2022-12-07T11:08:43;97578.19;;;2.99;78.80
21096;BME280;10706;49.036;12.112;2022-12-07T11:14:23;97571.88;;;3.00;78.62
21096;BME280;10706;49.036;12.112;2022-12-07T11:17:20;97563.84;;;3.08;78.42
21096;BME280;10706;49.036;12.112;2022-12-07T11:20:20;97562.41;;;3.05;78.60
21096;BME280;10706;49.036;12.112;2022-12-07T11:26:30;97560.34;;;3.01;77.73
21096;BME280;10706;49.036;12.112;2022-12-07T11:29:35;97556.59;;;3.17;77.86
21096;BME280;10706;49.036;12.112;2022-12-07T11:35:12;97557.22;;;3.19;77.03
21096;BME280;10706;49.036;12.112;2022-12-07T11:37:41;97556.41;;;3.18;78.58
21096;BME280;10706;49.036;12.112;2022-12-07T11:40:31;97553.59;;;3.20;77.60
21096;BME280;10706;49.036;12.112;2022-12-07T11:43:25;97548.13;;;3.21;77.80
21096;BME280;10706;49.036;12.112;2022-12-07T11:46:13;97549.53;;;3.24;76.73
21096;BME280;10706;49.036;12.112;2022-12-07T11:48:47;97545.84;;;3.18;77.94
21096;BME280;10706;49.036;12.112;2022-12-07T11:51:18;97540.56;;;3.18;76.68
21096;BME280;10706;49.036;12.112;2022-12-07T11:53:55;97544.03;;;3.19;77.31
21096;BME280;10706;49.036;12.112;2022-12-07T11:56:27;97548.22;;;3.06;76.80
21096;BME280;10706;49.036;12.112;2022-12-07T11:59:02;97547.38;;;3.06;78.28
21096;BME280;10706;49.036;12.112;2022-12-07T12:06:42;97545.94;;;3.03;79.15
21096;BME280;10706;49.036;12.112;2022-12-07T12:09:14;97539.28;;;3.07;79.49
21096;BME280;10706;49.036;12.112;2022-12-07T12:12:05;97536.44;;;3.09;80.28
21096;BME280;10706;49.036;12.112;2022-12-07T12:23:15;97519.22;;;3.13;80.27
21096;BME280;10706;49.036;12.112;2022-12-07T12:25:46;97530.19;;;3.10;78.53
21096;BME280;10706;49.036;12.112;2022-12-07T12:28:40;97526.16;;;3.14;80.19
21096;BME280;10706;49.036;12.112;2022-12-07T12:33:48;97530.28;;;2.95;80.76
21096;BME280;10706;49.036;12.112;2022-12-07T12:47:04;97529.56;;;2.58;88.74
21096;BME280;10706;49.036;12.112;2022-12-07T12:50:18;97529.06;;;2.69;88.46
21096;BME280;10706;49.036;12.112;2022-12-07T12:52:52;97519.56;;;2.75;86.97
21096;BME280;10706;49.036;12.112;2022-12-07T12:55:20;97525.66;;;2.76;87.65
21096;BME280;10706;49.036;12.112;2022-12-07T13:00:47;97511.91;;;2.80;87.54
21096;BME280;10706;49.036;12.112;2022-12-07T13:03:30;97509.13;;;2.88;85.61
21096;BME280;10706;49.036;12.112;2022-12-07T13:08:45;97511.22;;;3.00;86.03
21096;BME280;10706;49.036;12.112;2022-12-07T13:11:29;97503.06;;;2.95;84.03
21096;BME280;10706;49.036;12.112;2022-12-07T13:14:37;97503.72;;;2.97;84.78
21096;BME280;10706;49.036;12.112;2022-12-07T13:17:53;97497.44;;;2.98;84.76
21096;BME280;10706;49.036;12.112;2022-12-07T13:20:03;97499.00;;;2.92;85.51
21096;BME280;10706;49.036;12.112;2022-12-07T13:25:31;97497.41;;;2.91;85.42
21096;BME280;10706;49.036;12.112;2022-12-07T13:28:17;97495.13;;;2.88;85.54
21096;BME280;10706;49.036;12.112;2022-12-07T13:31:13;97504.03;;;2.87;84.85
21096;BME280;10706;49.036;12.112;2022-12-07T13:33:44;97501.22;;;2.88;86.24
21096;BME280;10706;49.036;12.112;2022-12-07T13:36:26;97498.63;;;2.95;84.96
21096;BME280;10706;49.036;12.112;2022-12-07T13:39:00;97507.50;;;2.87;84.71
21096;BME280;10706;49.036;12.112;2022-12-07T13:41:35;97502.97;;;2.81;86.08
21096;BME280;10706;49.036;12.112;2022-12-07T13:44:13;97492.25;;;2.83;84.80
21096;BME280;10706;49.036;12.112;2022-12-07T13:47:17;97488.81;;;2.82;85.25
21096;BME280;10706;49.036;12.112;2022-12-07T13:49:51;97500.59;;;2.86;84.89
21096;BME280;10706;49.036;12.112;2022-12-07T13:57:31;97492.13;;;2.91;84.46
21096;BME280;10706;49.036;12.112;2022-12-07T13:59:59;97500.84;;;2.91;84.02
21096;BME280;10706;49.036;12.112;2022-12-07T14:02:34;97495.75;;;2.90;84.39
21096;BME280;10706;49.036;12.112;2022-12-07T14:05:16;97491.53;;;2.96;84.40
21096;BME280;10706;49.036;12.112;2022-12-07T14:08:02;97490.31;;;2.98;85.44
21096;BME280;10706;49.036;12.112;2022-12-07T14:10:53;97493.81;;;3.05;85.04
21096;BME280;10706;49.036;12.112;2022-12-07T14:16:23;97494.84;;;3.04;84.85
21096;BME280;10706;49.036;12.112;2022-12-07T14:18:51;97491.78;;;3.01;84.33
21096;BME280;10706;49.036;12.112;2022-12-07T14:21:23;97491.59;;;3.02;85.50
21096;BME280;10706;49.036;12.112;2022-12-07T14:24:15;97493.44;;;3.08;84.43
21096;BME280;10706;49.036;12.112;2022-12-07T14:26:42;97492.97;;;2.98;85.25
21096;BME280;10706;49.036;12.112;2022-12-07T14:31:54;97491.59;;;3.02;84.49
21096;BME280;10706;49.036;12.112;2022-12-07T14:34:21;97488.72;;;2.97;85.37
21096;BME280;10706;49.036;12.112;2022-12-07T14:36:48;97490.09;;;2.93;84.50
21096;BME280;10706;49.036;12.112;2022-12-07T14:39:13;97491.28;;;2.90;84.51
21096;BME280;10706;49.036;12.112;2022-12-07T14:41:39;97488.66;;;2.90;84.79
21096;BME280;10706;49.036;12.112;2022-12-07T14:44:19;97491.47;;;2.89;85.86
21096;BME280;10706;49.036;12.112;2022-12-07T14:46:47;97494.09;;;2.89;85.05
21096;BME280;10706;49.036;12.112;2022-12-07T14:49:13;97494.06;;;2.82;85.46
21096;BME280;10706;49.036;12.112;2022-12-07T14:51:40;97486.34;;;2.81;86.71
21096;BME280;10706;49.036;12.112;2022-12-07T14:54:19;97490.00;;;2.80;85.91
21096;BME280;10706;49.036;12.112;2022-12-07T14:56:46;97490.41;;;2.83;85.69
21096;BME280;10706;49.036;12.112;2022-12-07T14:59:16;97487.16;;;2.81;85.47
21096;BME280;10706;49.036;12.112;2022-12-07T15:01:42;97487.56;;;2.78;85.92
21096;BME280;10706;49.036;12.112;2022-12-07T15:04:08;97494.00;;;2.76;86.19
21096;BME280;10706;49.036;12.112;2022-12-07T15:06:34;97481.25;;;2.72;85.94
21096;BME280;10706;49.036;12.112;2022-12-07T15:09:00;97487.91;;;2.68;85.71
21096;BME280;10706;49.036;12.112;2022-12-07T15:11:26;97485.63;;;2.65;87.08